Terminal Aerodrome Forecast
Issued by NWS Wakefield, VA

Home | Current Version | Previous Version | Text Only | Print | Product List | Glossary On
Versions: 1 2 3 4 5 6 7 8 9 10 11 12 13 14
000
FTUS41 KAKQ 272340
TAFECG
TAF
KECG 272340Z 2800/2824 07006KT P6SM SCT070 BKN250
     FM280500 15003KT P6SM BKN250
     FM281000 21003KT P6SM SCT250
     FM281600 21008KT P6SM BKN250=

USA.gov is the U.S. government's official web portal to all federal, state and local government web resources and services.